Map

Track Data

SID SEASON NUMBER BASIN SUBBASIN NAME ISO_TIME NATURE LAT LON WMO_WIND WMO_PRES WMO_AGENCY TRACK_TYPE DIST2LAND LANDFALL IFLAG USA_AGENCY USA_ATCF_ID USA_LAT USA_LON USA_RECORD USA_STATUS USA_WIND USA_PRES USA_SSHS USA_R34_NE USA_R34_SE USA_R34_SW USA_R34_NW USA_R50_NE USA_R50_SE USA_R50_SW USA_R50_NW USA_R64_NE USA_R64_SE USA_R64_SW USA_R64_NW USA_POCI USA_ROCI USA_RMW USA_EYE TOKYO_LAT TOKYO_LON TOKYO_GRADE TOKYO_WIND TOKYO_PRES TOKYO_R50_DIR TOKYO_R50_LONG TOKYO_R50_SHORT TOKYO_R30_DIR TOKYO_R30_LONG TOKYO_R30_SHORT TOKYO_LAND CMA_LAT CMA_LON CMA_CAT CMA_WIND CMA_PRES HKO_LAT HKO_LON HKO_CAT HKO_WIND HKO_PRES NEWDELHI_LAT NEWDELHI_LON NEWDELHI_GRADE NEWDELHI_WIND NEWDELHI_PRES NEWDELHI_CI NEWDELHI_DP NEWDELHI_POCI REUNION_LAT REUNION_LON REUNION_TYPE REUNION_WIND REUNION_PRES REUNION_TNUM REUNION_CI REUNION_RMW REUNION_R34_NE REUNION_R34_SE REUNION_R34_SW REUNION_R34_NW REUNION_R50_NE REUNION_R50_SE REUNION_R50_SW REUNION_R50_NW REUNION_R64_NE REUNION_R64_SE REUNION_R64_SW REUNION_R64_NW BOM_LAT BOM_LON BOM_TYPE BOM_WIND BOM_PRES BOM_TNUM BOM_CI BOM_RMW BOM_R34_NE BOM_R34_SE BOM_R34_SW BOM_R34_NW BOM_R50_NE BOM_R50_SE BOM_R50_SW BOM_R50_NW BOM_R64_NE BOM_R64_SE BOM_R64_SW BOM_R64_NW BOM_ROCI BOM_POCI BOM_EYE BOM_POS_METHOD BOM_PRES_METHOD NADI_LAT NADI_LON NADI_CAT NADI_WIND NADI_PRES WELLINGTON_LAT WELLINGTON_LON WELLINGTON_WIND WELLINGTON_PRES DS824_LAT DS824_LON DS824_STAGE DS824_WIND DS824_PRES TD9636_LAT TD9636_LON TD9636_STAGE TD9636_WIND TD9636_PRES TD9635_LAT TD9635_LON TD9635_WIND TD9635_PRES TD9635_ROCI NEUMANN_LAT NEUMANN_LON NEUMANN_CLASS NEUMANN_WIND NEUMANN_PRES MLC_LAT MLC_LON MLC_CLASS MLC_WIND MLC_PRES USA_GUST BOM_GUST BOM_GUST_PER REUNION_GUST REUNION_GUST_PER USA_SEAHGT USA_SEARAD_NE USA_SEARAD_SE USA_SEARAD_SW USA_SEARAD_NW STORM_SPEED STORM_DIR
1997256N14227 1997 82 EP MM MARTY 1997-09-12 18:00:00 TS 14.3000 -133.100 25 1006 hurdat_epa main 2379 2358 O_____________ hurdat_epa EP151997 14.3000 -133.100 TD 25 1006 -1 4 256
1997256N14227 1997 82 EP MM MARTY 1997-09-12 21:00:00 TS 14.2500 -133.303 main 2358 2341 P_____________ EP151997 14.2500 -133.303 TD 27 1006 -1 4 256
1997256N14227 1997 82 EP MM MARTY 1997-09-13 00:00:00 TS 14.2000 -133.500 30 1006 hurdat_epa main 2341 2321 O_____________ hurdat_epa EP151997 14.2000 -133.500 TD 30 1006 -1 4 255
1997256N14227 1997 82 EP MM MARTY 1997-09-13 03:00:00 TS 14.1500 -133.692 main 2324 2303 P_____________ EP151997 14.1500 -133.692 TD 30 1006 -1 4 256
1997256N14227 1997 82 EP MM MARTY 1997-09-13 06:00:00 TS 14.1000 -133.900 30 1006 hurdat_epa main 2303 2283 O_____________ hurdat_epa EP151997 14.1000 -133.900 TD 30 1006 -1 4 257
1997256N14227 1997 82 EP MM MARTY 1997-09-13 09:00:00 TS 14.0500 -134.142 main 2283 2256 P_____________ EP151997 14.0500 -134.142 TD 30 1006 -1 5 258
1997256N14227 1997 82 EP MM MARTY 1997-09-13 12:00:00 TS 14.0000 -134.400 30 1006 hurdat_epa main 2256 2235 O_____________ hurdat_epa EP151997 14.0000 -134.400 TD 30 1006 -1 5 257
1997256N14227 1997 82 EP MM MARTY 1997-09-13 15:00:00 TS 13.9424 -134.643 main 2239 2208 P_____________ EP151997 13.9424 -134.643 TD 30 1005 -1 5 258
1997256N14227 1997 82 EP MM MARTY 1997-09-13 18:00:00 TS 13.9000 -134.900 30 1005 hurdat_epa main 2208 2178 O_____________ hurdat_epa EP151997 13.9000 -134.900 TD 30 1005 -1 6 267
1997256N14227 1997 82 EP MM MARTY 1997-09-13 21:00:00 TS 13.9151 -135.230 main 2178 2147 P_____________ EP151997 13.9151 -135.230 TD 32 1004 -1 6 270
1997256N14227 1997 82 EP MM MARTY 1997-09-14 00:00:00 TS 13.9000 -135.500 35 1004 hurdat_epa main 2147 2137 O_____________ hurdat_epa EP151997 13.9000 -135.500 TS 35 1004 0 4 247
1997256N14227 1997 82 EP MM MARTY 1997-09-14 03:00:00 TS 13.7724 -135.580 main 2141 2141 P_____________ EP151997 13.7724 -135.580 TS 37 1003 0 3 197
1997256N14227 1997 82 EP MM MARTY 1997-09-14 06:00:00 TS 13.6000 -135.600 40 1003 hurdat_epa main 2149 2142 O_____________ hurdat_epa EP151997 13.6000 -135.600 TS 40 1003 0 3 200
1997256N14227 1997 82 EP MM MARTY 1997-09-14 09:00:00 TS 13.4575 -135.700 main 2142 2136 P_____________ EP151997 13.4575 -135.700 TS 40 1002 0 4 213
1997256N14227 1997 82 EP MM MARTY 1997-09-14 12:00:00 TS 13.3000 -135.800 40 1002 hurdat_epa main 2140 2139 O_____________ hurdat_epa EP151997 13.3000 -135.800 TS 40 1002 0 4 204
1997256N14227 1997 82 EP MM MARTY 1997-09-14 15:00:00 TS 13.1150 -135.857 main 2139 2139 P_____________ EP151997 13.1150 -135.857 TS 40 1002 0 4 193
1997256N14227 1997 82 EP MM MARTY 1997-09-14 18:00:00 TS 12.9000 -135.900 40 1003 hurdat_epa main 2147 2147 O_____________ hurdat_epa EP151997 12.9000 -135.900 TS 40 1003 0 5 191
1997256N14227 1997 82 EP MM MARTY 1997-09-14 21:00:00 TS 12.6500 -135.950 main 2156 2150 P_____________ EP151997 12.6500 -135.950 TS 37 1003 0 5 191
1997256N14227 1997 82 EP MM MARTY 1997-09-15 00:00:00 TS 12.4000 -136.000 35 1004 hurdat_epa main 2159 2159 O_____________ hurdat_epa EP151997 12.4000 -136.000 TS 35 1004 0 5 191
1997256N14227 1997 82 EP MM MARTY 1997-09-15 03:00:00 TS 12.1700 -136.050 main 2159 2159 P_____________ EP151997 12.1700 -136.050 TS 35 1004 0 4 193
1997256N14227 1997 82 EP MM MARTY 1997-09-15 06:00:00 TS 12.0000 -136.100 35 1005 hurdat_epa main 2168 2168 O_____________ hurdat_epa EP151997 12.0000 -136.100 TS 35 1005 0 3 202
1997256N14227 1997 82 EP MM MARTY 1997-09-15 09:00:00 TS 11.9275 -136.150 main 2173 2163 P_____________ EP151997 11.9275 -136.150 TS 32 1005 -1 1 223
1997256N14227 1997 82 EP MM MARTY 1997-09-15 12:00:00 TS 11.9000 -136.200 30 1006 hurdat_epa main 2163 2163 O_____________ hurdat_epa EP151997 11.9000 -136.200 TD 30 1006 -1 1 230
1997256N14227 1997 82 EP MM MARTY 1997-09-15 15:00:00 TS 11.8425 -136.250 main 2158 2158 P_____________ EP151997 11.8425 -136.250 TD 30 1006 -1 1 223
1997256N14227 1997 82 EP MM MARTY 1997-09-15 18:00:00 TS 11.8000 -136.300 30 1006 hurdat_epa main 2158 2158 O_____________ hurdat_epa EP151997 11.8000 -136.300 TD 30 1006 -1 1 244
1997256N14227 1997 82 EP MM MARTY 1997-09-15 21:00:00 TS 11.8000 -136.342 main 2158 2148 P_____________ EP151997 11.8000 -136.342 TD 27 1006 -1 1 270
1997256N14227 1997 82 EP MM MARTY 1997-09-16 00:00:00 TS 11.8000 -136.400 25 1006 hurdat_epa main 2148 2139 O_____________ hurdat_epa EP151997 11.8000 -136.400 TD 25 1006 -1 1 253
1997256N14227 1997 82 EP MM MARTY 1997-09-16 03:00:00 TS 11.7575 -136.485 main 2139 2134 P_____________ EP151997 11.7575 -136.485 TD 25 1006 -1 2 243
1997256N14227 1997 82 EP MM MARTY 1997-09-16 06:00:00 TS 11.7000 -136.600 25 1006 hurdat_epa main 2134 2124 O_____________ hurdat_epa EP151997 11.7000 -136.600 TD 25 1006 -1 3 247
1997256N14227 1997 82 EP MM MARTY 1997-09-16 09:00:00 TS 11.6475 -136.743 main 2129 2110 P_____________ EP151997 11.6475 -136.743 TD 25 1006 -1 3 251
1997256N14227 1997 82 EP MM MARTY 1997-09-16 12:00:00 TS 11.6000 -136.900 25 1006 hurdat_epa main 2110 O_____________ hurdat_epa EP151997 11.6000 -136.900 TD 25 1006 -1 3 253

About IBTrACS Database

This database is a web-friendly format of International Best Track Archive for Climate Stewardship (IBTrACS), a global best track data archive curated by NOAA dating back to 1842.

Updated: 2021-10-25